sensor_id;sensor_type;location;lat;lon;timestamp;P1;durP1;ratioP1;P2;durP2;ratioP2
39924;SDS011;25592;49.986;11.618;2023-09-30T00:01:40;22.40;;;9.65;;
39924;SDS011;25592;49.986;11.618;2023-09-30T00:04:25;26.25;;;10.38;;
39924;SDS011;25592;49.986;11.618;2023-09-30T00:07:12;24.17;;;9.43;;
39924;SDS011;25592;49.986;11.618;2023-09-30T00:09:58;24.27;;;10.40;;
39924;SDS011;25592;49.986;11.618;2023-09-30T00:12:44;27.35;;;10.88;;
39924;SDS011;25592;49.986;11.618;2023-09-30T00:15:30;25.60;;;10.45;;
39924;SDS011;25592;49.986;11.618;2023-09-30T00:18:16;26.25;;;9.85;;
39924;SDS011;25592;49.986;11.618;2023-09-30T00:21:01;22.55;;;8.73;;
39924;SDS011;25592;49.986;11.618;2023-09-30T00:23:47;28.20;;;9.65;;
39924;SDS011;25592;49.986;11.618;2023-09-30T00:26:33;22.23;;;9.40;;
39924;SDS011;25592;49.986;11.618;2023-09-30T00:29:19;25.63;;;11.27;;
39924;SDS011;25592;49.986;11.618;2023-09-30T00:32:04;27.38;;;10.43;;
39924;SDS011;25592;49.986;11.618;2023-09-30T00:34:50;25.90;;;11.35;;
39924;SDS011;25592;49.986;11.618;2023-09-30T00:37:37;25.75;;;9.70;;
39924;SDS011;25592;49.986;11.618;2023-09-30T00:40:23;26.00;;;9.80;;
39924;SDS011;25592;49.986;11.618;2023-09-30T00:43:17;25.70;;;9.95;;
39924;SDS011;25592;49.986;11.618;2023-09-30T00:49:07;23.65;;;8.98;;
39924;SDS011;25592;49.986;11.618;2023-09-30T00:51:52;21.65;;;9.05;;
39924;SDS011;25592;49.986;11.618;2023-09-30T00:54:39;23.35;;;9.43;;
39924;SDS011;25592;49.986;11.618;2023-09-30T00:57:25;26.75;;;10.25;;
39924;SDS011;25592;49.986;11.618;2023-09-30T01:00:12;22.98;;;9.20;;
39924;SDS011;25592;49.986;11.618;2023-09-30T01:02:58;24.85;;;10.15;;
39924;SDS011;25592;49.986;11.618;2023-09-30T01:05:49;28.05;;;9.73;;
39924;SDS011;25592;49.986;11.618;2023-09-30T01:08:34;21.58;;;9.18;;
39924;SDS011;25592;49.986;11.618;2023-09-30T01:11:20;23.48;;;8.68;;
39924;SDS011;25592;49.986;11.618;2023-09-30T01:14:23;19.05;;;7.97;;
39924;SDS011;25592;49.986;11.618;2023-09-30T01:17:19;22.70;;;8.73;;
39924;SDS011;25592;49.986;11.618;2023-09-30T01:20:06;23.05;;;8.00;;
39924;SDS011;25592;49.986;11.618;2023-09-30T01:22:53;23.55;;;9.43;;
39924;SDS011;25592;49.986;11.618;2023-09-30T01:25:40;22.50;;;8.68;;
39924;SDS011;25592;49.986;11.618;2023-09-30T01:28:27;25.73;;;8.55;;
39924;SDS011;25592;49.986;11.618;2023-09-30T01:31:13;22.85;;;8.25;;
39924;SDS011;25592;49.986;11.618;2023-09-30T01:33:58;23.65;;;8.10;;
39924;SDS011;25592;49.986;11.618;2023-09-30T01:36:44;23.65;;;8.30;;
39924;SDS011;25592;49.986;11.618;2023-09-30T01:39:29;20.15;;;8.10;;
39924;SDS011;25592;49.986;11.618;2023-09-30T01:42:15;19.50;;;7.13;;
39924;SDS011;25592;49.986;11.618;2023-09-30T01:45:01;20.35;;;7.70;;
39924;SDS011;25592;49.986;11.618;2023-09-30T01:47:46;20.90;;;7.93;;
39924;SDS011;25592;49.986;11.618;2023-09-30T01:50:31;17.58;;;7.93;;
39924;SDS011;25592;49.986;11.618;2023-09-30T01:53:17;21.98;;;8.30;;
39924;SDS011;25592;49.986;11.618;2023-09-30T01:56:02;19.73;;;7.25;;
39924;SDS011;25592;49.986;11.618;2023-09-30T01:58:48;22.60;;;7.80;;
39924;SDS011;25592;49.986;11.618;2023-09-30T02:01:33;19.17;;;7.18;;
39924;SDS011;25592;49.986;11.618;2023-09-30T02:04:19;22.42;;;8.20;;
39924;SDS011;25592;49.986;11.618;2023-09-30T02:07:04;21.15;;;9.13;;
39924;SDS011;25592;49.986;11.618;2023-09-30T02:09:50;21.33;;;7.47;;
39924;SDS011;25592;49.986;11.618;2023-09-30T02:12:35;18.45;;;7.90;;
39924;SDS011;25592;49.986;11.618;2023-09-30T02:15:21;19.67;;;7.10;;
39924;SDS011;25592;49.986;11.618;2023-09-30T02:18:07;15.57;;;6.75;;
39924;SDS011;25592;49.986;11.618;2023-09-30T02:20:53;21.63;;;8.43;;
39924;SDS011;25592;49.986;11.618;2023-09-30T02:23:39;20.77;;;7.57;;
39924;SDS011;25592;49.986;11.618;2023-09-30T02:26:24;19.70;;;7.65;;
39924;SDS011;25592;49.986;11.618;2023-09-30T02:29:12;18.45;;;7.45;;
39924;SDS011;25592;49.986;11.618;2023-09-30T02:31:58;22.73;;;7.82;;
39924;SDS011;25592;49.986;11.618;2023-09-30T02:34:43;18.65;;;8.05;;
39924;SDS011;25592;49.986;11.618;2023-09-30T02:37:31;17.98;;;7.00;;
39924;SDS011;25592;49.986;11.618;2023-09-30T02:40:20;13.45;;;5.13;;
39924;SDS011;25592;49.986;11.618;2023-09-30T02:43:05;13.75;;;5.13;;
39924;SDS011;25592;49.986;11.618;2023-09-30T02:45:51;12.52;;;5.13;;
39924;SDS011;25592;49.986;11.618;2023-09-30T02:48:37;15.98;;;5.00;;
39924;SDS011;25592;49.986;11.618;2023-09-30T02:51:23;14.27;;;4.38;;
39924;SDS011;25592;49.986;11.618;2023-09-30T02:54:10;13.00;;;5.20;;
39924;SDS011;25592;49.986;11.618;2023-09-30T02:57:00;15.50;;;4.07;;
39924;SDS011;25592;49.986;11.618;2023-09-30T02:59:45;10.07;;;3.97;;
39924;SDS011;25592;49.986;11.618;2023-09-30T03:02:31;9.60;;;3.70;;
39924;SDS011;25592;49.986;11.618;2023-09-30T03:05:17;10.23;;;3.53;;
39924;SDS011;25592;49.986;11.618;2023-09-30T03:08:04;11.05;;;3.42;;
39924;SDS011;25592;49.986;11.618;2023-09-30T03:10:49;10.75;;;3.17;;
39924;SDS011;25592;49.986;11.618;2023-09-30T03:13:35;9.27;;;2.78;;
39924;SDS011;25592;49.986;11.618;2023-09-30T03:16:22;8.55;;;2.63;;
39924;SDS011;25592;49.986;11.618;2023-09-30T03:19:07;8.40;;;2.78;;
39924;SDS011;25592;49.986;11.618;2023-09-30T03:21:56;6.00;;;2.05;;
39924;SDS011;25592;49.986;11.618;2023-09-30T03:24:42;5.00;;;2.35;;
39924;SDS011;25592;49.986;11.618;2023-09-30T03:27:27;6.15;;;2.85;;
39924;SDS011;25592;49.986;11.618;2023-09-30T03:30:13;5.47;;;2.13;;
39924;SDS011;25592;49.986;11.618;2023-09-30T03:33:00;5.50;;;2.35;;
39924;SDS011;25592;49.986;11.618;2023-09-30T03:35:49;6.78;;;2.30;;
39924;SDS011;25592;49.986;11.618;2023-09-30T03:38:34;7.35;;;1.92;;
39924;SDS011;25592;49.986;11.618;2023-09-30T03:41:20;7.63;;;3.45;;
39924;SDS011;25592;49.986;11.618;2023-09-30T03:44:06;6.18;;;2.20;;
39924;SDS011;25592;49.986;11.618;2023-09-30T03:46:52;6.57;;;2.40;;
39924;SDS011;25592;49.986;11.618;2023-09-30T03:49:37;11.20;;;2.40;;
39924;SDS011;25592;49.986;11.618;2023-09-30T03:52:23;8.00;;;2.90;;
39924;SDS011;25592;49.986;11.618;2023-09-30T03:55:11;6.43;;;2.17;;
39924;SDS011;25592;49.986;11.618;2023-09-30T03:57:57;8.40;;;2.58;;
39924;SDS011;25592;49.986;11.618;2023-09-30T04:00:43;6.90;;;2.40;;
39924;SDS011;25592;49.986;11.618;2023-09-30T04:03:30;6.13;;;2.38;;
39924;SDS011;25592;49.986;11.618;2023-09-30T04:06:18;10.13;;;2.55;;
39924;SDS011;25592;49.986;11.618;2023-09-30T04:09:04;5.10;;;2.47;;
39924;SDS011;25592;49.986;11.618;2023-09-30T04:11:55;8.43;;;2.60;;
39924;SDS011;25592;49.986;11.618;2023-09-30T04:14:40;5.80;;;2.10;;
39924;SDS011;25592;49.986;11.618;2023-09-30T04:17:26;7.72;;;2.22;;
39924;SDS011;25592;49.986;11.618;2023-09-30T04:20:12;6.30;;;2.45;;
39924;SDS011;25592;49.986;11.618;2023-09-30T04:23:02;10.38;;;2.30;;
39924;SDS011;25592;49.986;11.618;2023-09-30T04:25:47;5.50;;;2.40;;
39924;SDS011;25592;49.986;11.618;2023-09-30T04:28:34;5.18;;;2.45;;
39924;SDS011;25592;49.986;11.618;2023-09-30T04:31:20;6.40;;;2.50;;
39924;SDS011;25592;49.986;11.618;2023-09-30T04:34:09;7.22;;;2.83;;
39924;SDS011;25592;49.986;11.618;2023-09-30T04:36:54;7.43;;;2.72;;
39924;SDS011;25592;49.986;11.618;2023-09-30T04:39:40;9.40;;;2.50;;
39924;SDS011;25592;49.986;11.618;2023-09-30T04:42:25;9.07;;;3.30;;
39924;SDS011;25592;49.986;11.618;2023-09-30T04:45:11;7.65;;;2.55;;
39924;SDS011;25592;49.986;11.618;2023-09-30T04:47:58;10.20;;;3.22;;
39924;SDS011;25592;49.986;11.618;2023-09-30T04:50:43;7.88;;;3.38;;
39924;SDS011;25592;49.986;11.618;2023-09-30T04:53:30;8.77;;;2.60;;
39924;SDS011;25592;49.986;11.618;2023-09-30T04:56:18;7.63;;;2.63;;
39924;SDS011;25592;49.986;11.618;2023-09-30T04:59:04;7.20;;;2.78;;
39924;SDS011;25592;49.986;11.618;2023-09-30T05:01:49;6.65;;;2.72;;
39924;SDS011;25592;49.986;11.618;2023-09-30T05:04:35;7.68;;;2.38;;
39924;SDS011;25592;49.986;11.618;2023-09-30T05:07:22;8.35;;;2.80;;
39924;SDS011;25592;49.986;11.618;2023-09-30T05:10:07;5.65;;;2.25;;
39924;SDS011;25592;49.986;11.618;2023-09-30T05:12:58;7.25;;;2.97;;
39924;SDS011;25592;49.986;11.618;2023-09-30T05:15:44;6.10;;;2.67;;
39924;SDS011;25592;49.986;11.618;2023-09-30T05:18:30;8.05;;;2.85;;
39924;SDS011;25592;49.986;11.618;2023-09-30T05:21:16;6.93;;;2.17;;
39924;SDS011;25592;49.986;11.618;2023-09-30T05:24:01;7.80;;;3.90;;
39924;SDS011;25592;49.986;11.618;2023-09-30T05:26:47;7.57;;;2.50;;
39924;SDS011;25592;49.986;11.618;2023-09-30T05:29:33;7.55;;;2.63;;
39924;SDS011;25592;49.986;11.618;2023-09-30T05:32:18;5.97;;;2.70;;
39924;SDS011;25592;49.986;11.618;2023-09-30T05:35:04;6.78;;;2.75;;
39924;SDS011;25592;49.986;11.618;2023-09-30T05:37:54;7.65;;;2.50;;
39924;SDS011;25592;49.986;11.618;2023-09-30T05:40:42;8.35;;;2.88;;
39924;SDS011;25592;49.986;11.618;2023-09-30T05:43:28;8.38;;;2.63;;
39924;SDS011;25592;49.986;11.618;2023-09-30T05:46:14;7.00;;;2.53;;
39924;SDS011;25592;49.986;11.618;2023-09-30T05:49:00;4.15;;;2.08;;
39924;SDS011;25592;49.986;11.618;2023-09-30T05:51:46;7.40;;;2.28;;
39924;SDS011;25592;49.986;11.618;2023-09-30T05:54:32;9.35;;;2.30;;
39924;SDS011;25592;49.986;11.618;2023-09-30T05:57:18;7.45;;;2.45;;
39924;SDS011;25592;49.986;11.618;2023-09-30T06:00:03;6.28;;;1.98;;
39924;SDS011;25592;49.986;11.618;2023-09-30T06:02:59;5.05;;;2.05;;
39924;SDS011;25592;49.986;11.618;2023-09-30T06:05:46;6.55;;;2.20;;
39924;SDS011;25592;49.986;11.618;2023-09-30T06:08:32;4.90;;;2.13;;
39924;SDS011;25592;49.986;11.618;2023-09-30T06:11:18;6.38;;;2.33;;
39924;SDS011;25592;49.986;11.618;2023-09-30T06:14:04;7.28;;;2.50;;
39924;SDS011;25592;49.986;11.618;2023-09-30T06:16:51;6.40;;;2.35;;
39924;SDS011;25592;49.986;11.618;2023-09-30T06:19:36;8.10;;;2.35;;
39924;SDS011;25592;49.986;11.618;2023-09-30T06:22:22;6.78;;;2.13;;
39924;SDS011;25592;49.986;11.618;2023-09-30T06:25:13;6.88;;;2.13;;
39924;SDS011;25592;49.986;11.618;2023-09-30T06:28:01;11.63;;;2.35;;
39924;SDS011;25592;49.986;11.618;2023-09-30T06:30:48;5.15;;;2.05;;
39924;SDS011;25592;49.986;11.618;2023-09-30T06:33:35;8.70;;;2.75;;
39924;SDS011;25592;49.986;11.618;2023-09-30T06:36:25;13.10;;;2.97;;
39924;SDS011;25592;49.986;11.618;2023-09-30T06:39:10;9.82;;;2.22;;
39924;SDS011;25592;49.986;11.618;2023-09-30T06:41:55;5.43;;;2.53;;
39924;SDS011;25592;49.986;11.618;2023-09-30T06:44:41;5.82;;;2.60;;
39924;SDS011;25592;49.986;11.618;2023-09-30T06:47:26;7.80;;;2.10;;
39924;SDS011;25592;49.986;11.618;2023-09-30T06:50:12;4.93;;;2.13;;
39924;SDS011;25592;49.986;11.618;2023-09-30T06:53:01;6.38;;;2.28;;
39924;SDS011;25592;49.986;11.618;2023-09-30T06:55:47;8.13;;;2.20;;
39924;SDS011;25592;49.986;11.618;2023-09-30T06:58:32;6.47;;;2.63;;
39924;SDS011;25592;49.986;11.618;2023-09-30T07:01:18;7.00;;;2.20;;
39924;SDS011;25592;49.986;11.618;2023-09-30T07:04:03;6.07;;;2.00;;
39924;SDS011;25592;49.986;11.618;2023-09-30T07:06:49;5.47;;;2.20;;
39924;SDS011;25592;49.986;11.618;2023-09-30T07:09:35;7.72;;;2.47;;
39924;SDS011;25592;49.986;11.618;2023-09-30T07:12:21;7.75;;;2.58;;
39924;SDS011;25592;49.986;11.618;2023-09-30T07:15:07;5.50;;;1.85;;
39924;SDS011;25592;49.986;11.618;2023-09-30T07:17:53;6.70;;;2.22;;
39924;SDS011;25592;49.986;11.618;2023-09-30T07:20:39;6.40;;;2.45;;
39924;SDS011;25592;49.986;11.618;2023-09-30T07:23:24;7.68;;;2.58;;
39924;SDS011;25592;49.986;11.618;2023-09-30T07:26:10;7.75;;;2.80;;
39924;SDS011;25592;49.986;11.618;2023-09-30T07:28:55;7.78;;;2.47;;
39924;SDS011;25592;49.986;11.618;2023-09-30T07:31:42;7.35;;;2.88;;
39924;SDS011;25592;49.986;11.618;2023-09-30T07:34:27;12.65;;;2.88;;
39924;SDS011;25592;49.986;11.618;2023-09-30T07:37:13;19.55;;;3.28;;
39924;SDS011;25592;49.986;11.618;2023-09-30T07:39:59;11.77;;;3.13;;
39924;SDS011;25592;49.986;11.618;2023-09-30T07:42:45;10.30;;;3.28;;
39924;SDS011;25592;49.986;11.618;2023-09-30T07:45:30;8.63;;;3.25;;
39924;SDS011;25592;49.986;11.618;2023-09-30T07:48:16;7.35;;;2.53;;
39924;SDS011;25592;49.986;11.618;2023-09-30T07:51:02;7.28;;;2.75;;
39924;SDS011;25592;49.986;11.618;2023-09-30T07:53:48;8.05;;;2.72;;
39924;SDS011;25592;49.986;11.618;2023-09-30T07:56:34;7.85;;;2.28;;
39924;SDS011;25592;49.986;11.618;2023-09-30T07:59:19;5.35;;;1.80;;
39924;SDS011;25592;49.986;11.618;2023-09-30T08:02:05;8.32;;;2.78;;
39924;SDS011;25592;49.986;11.618;2023-09-30T08:04:52;6.88;;;2.10;;
39924;SDS011;25592;49.986;11.618;2023-09-30T08:07:37;5.28;;;2.10;;
39924;SDS011;25592;49.986;11.618;2023-09-30T08:10:23;4.03;;;1.80;;
39924;SDS011;25592;49.986;11.618;2023-09-30T08:13:08;5.53;;;2.00;;
39924;SDS011;25592;49.986;11.618;2023-09-30T08:15:55;6.03;;;2.03;;
39924;SDS011;25592;49.986;11.618;2023-09-30T08:18:40;7.47;;;2.22;;
39924;SDS011;25592;49.986;11.618;2023-09-30T08:21:26;7.13;;;2.05;;
39924;SDS011;25592;49.986;11.618;2023-09-30T08:24:11;6.70;;;2.20;;
39924;SDS011;25592;49.986;11.618;2023-09-30T08:26:57;6.43;;;3.20;;
39924;SDS011;25592;49.986;11.618;2023-09-30T08:29:42;6.50;;;2.10;;
39924;SDS011;25592;49.986;11.618;2023-09-30T08:32:28;6.78;;;1.80;;
39924;SDS011;25592;49.986;11.618;2023-09-30T08:35:13;5.63;;;2.15;;
39924;SDS011;25592;49.986;11.618;2023-09-30T08:38:00;7.03;;;1.92;;
39924;SDS011;25592;49.986;11.618;2023-09-30T08:40:47;5.20;;;2.08;;
39924;SDS011;25592;49.986;11.618;2023-09-30T08:43:37;7.32;;;2.33;;
39924;SDS011;25592;49.986;11.618;2023-09-30T08:46:24;7.88;;;2.00;;
39924;SDS011;25592;49.986;11.618;2023-09-30T08:49:10;7.38;;;2.28;;
39924;SDS011;25592;49.986;11.618;2023-09-30T08:51:56;6.22;;;2.45;;
39924;SDS011;25592;49.986;11.618;2023-09-30T08:54:45;9.40;;;2.40;;
39924;SDS011;25592;49.986;11.618;2023-09-30T08:57:30;6.03;;;2.60;;
39924;SDS011;25592;49.986;11.618;2023-09-30T09:00:16;5.97;;;2.20;;
39924;SDS011;25592;49.986;11.618;2023-09-30T09:03:02;8.75;;;2.60;;
39924;SDS011;25592;49.986;11.618;2023-09-30T09:05:55;9.90;;;2.58;;
39924;SDS011;25592;49.986;11.618;2023-09-30T09:08:41;6.40;;;2.45;;
39924;SDS011;25592;49.986;11.618;2023-09-30T09:11:26;5.68;;;2.00;;
39924;SDS011;25592;49.986;11.618;2023-09-30T09:14:12;9.38;;;1.98;;
39924;SDS011;25592;49.986;11.618;2023-09-30T09:16:57;10.75;;;2.63;;
39924;SDS011;25592;49.986;11.618;2023-09-30T09:19:43;5.80;;;2.10;;
39924;SDS011;25592;49.986;11.618;2023-09-30T09:22:41;4.13;;;1.90;;
39924;SDS011;25592;49.986;11.618;2023-09-30T09:25:28;6.15;;;2.40;;
39924;SDS011;25592;49.986;11.618;2023-09-30T09:28:15;8.07;;;1.85;;
39924;SDS011;25592;49.986;11.618;2023-09-30T09:31:00;8.90;;;2.58;;
39924;SDS011;25592;49.986;11.618;2023-09-30T09:33:45;4.75;;;2.00;;
39924;SDS011;25592;49.986;11.618;2023-09-30T09:36:41;3.90;;;1.65;;
39924;SDS011;25592;49.986;11.618;2023-09-30T09:39:29;6.45;;;2.10;;
39924;SDS011;25592;49.986;11.618;2023-09-30T09:45:22;5.18;;;2.05;;
39924;SDS011;25592;49.986;11.618;2023-09-30T09:48:09;6.38;;;2.35;;
39924;SDS011;25592;49.986;11.618;2023-09-30T09:50:54;4.97;;;1.73;;
39924;SDS011;25592;49.986;11.618;2023-09-30T09:53:40;2.85;;;1.58;;
39924;SDS011;25592;49.986;11.618;2023-09-30T09:56:26;6.68;;;1.95;;
39924;SDS011;25592;49.986;11.618;2023-09-30T09:59:12;8.27;;;3.08;;
39924;SDS011;25592;49.986;11.618;2023-09-30T10:01:58;6.90;;;2.20;;
39924;SDS011;25592;49.986;11.618;2023-09-30T10:04:44;4.90;;;2.08;;
39924;SDS011;25592;49.986;11.618;2023-09-30T10:07:34;5.22;;;1.83;;
39924;SDS011;25592;49.986;11.618;2023-09-30T10:10:22;6.05;;;1.73;;
39924;SDS011;25592;49.986;11.618;2023-09-30T10:13:08;6.20;;;1.98;;
39924;SDS011;25592;49.986;11.618;2023-09-30T10:15:54;7.63;;;2.30;;
39924;SDS011;25592;49.986;11.618;2023-09-30T10:25:00;6.72;;;2.33;;
39924;SDS011;25592;49.986;11.618;2023-09-30T10:31:18;7.18;;;2.22;;
39924;SDS011;25592;49.986;11.618;2023-09-30T10:36:50;8.18;;;2.05;;
39924;SDS011;25592;49.986;11.618;2023-09-30T10:39:53;4.95;;;2.45;;
39924;SDS011;25592;49.986;11.618;2023-09-30T10:51:14;5.05;;;1.92;;
39924;SDS011;25592;49.986;11.618;2023-09-30T10:54:00;8.30;;;1.83;;
39924;SDS011;25592;49.986;11.618;2023-09-30T10:56:47;5.82;;;2.20;;
39924;SDS011;25592;49.986;11.618;2023-09-30T10:59:33;5.63;;;2.05;;
39924;SDS011;25592;49.986;11.618;2023-09-30T11:02:20;7.00;;;2.10;;
39924;SDS011;25592;49.986;11.618;2023-09-30T11:05:09;6.07;;;2.25;;
39924;SDS011;25592;49.986;11.618;2023-09-30T11:07:56;5.47;;;2.30;;
39924;SDS011;25592;49.986;11.618;2023-09-30T11:10:51;6.47;;;2.00;;
39924;SDS011;25592;49.986;11.618;2023-09-30T11:13:37;5.07;;;2.10;;
39924;SDS011;25592;49.986;11.618;2023-09-30T11:16:24;6.47;;;2.00;;
39924;SDS011;25592;49.986;11.618;2023-09-30T11:19:10;9.52;;;3.17;;
39924;SDS011;25592;49.986;11.618;2023-09-30T11:21:56;4.80;;;2.00;;
39924;SDS011;25592;49.986;11.618;2023-09-30T11:24:43;6.15;;;1.95;;
39924;SDS011;25592;49.986;11.618;2023-09-30T11:27:31;5.53;;;2.10;;
39924;SDS011;25592;49.986;11.618;2023-09-30T11:30:16;4.35;;;1.80;;
39924;SDS011;25592;49.986;11.618;2023-09-30T11:33:02;5.70;;;2.10;;
39924;SDS011;25592;49.986;11.618;2023-09-30T11:36:00;6.25;;;2.33;;
39924;SDS011;25592;49.986;11.618;2023-09-30T11:38:48;5.47;;;2.20;;
39924;SDS011;25592;49.986;11.618;2023-09-30T11:44:23;4.85;;;2.03;;
39924;SDS011;25592;49.986;11.618;2023-09-30T11:47:10;5.38;;;1.95;;
39924;SDS011;25592;49.986;11.618;2023-09-30T11:49:57;5.65;;;1.88;;
39924;SDS011;25592;49.986;11.618;2023-09-30T11:52:43;4.10;;;1.55;;
39924;SDS011;25592;49.986;11.618;2023-09-30T11:55:31;4.43;;;1.90;;
39924;SDS011;25592;49.986;11.618;2023-09-30T11:58:17;5.13;;;1.85;;
39924;SDS011;25592;49.986;11.618;2023-09-30T12:01:04;5.65;;;1.80;;
39924;SDS011;25592;49.986;11.618;2023-09-30T12:03:52;4.88;;;1.85;;
39924;SDS011;25592;49.986;11.618;2023-09-30T12:06:43;6.43;;;1.90;;
39924;SDS011;25592;49.986;11.618;2023-09-30T12:09:28;6.32;;;2.20;;
39924;SDS011;25592;49.986;11.618;2023-09-30T12:12:14;6.03;;;1.80;;
39924;SDS011;25592;49.986;11.618;2023-09-30T12:15:01;4.20;;;1.70;;
39924;SDS011;25592;49.986;11.618;2023-09-30T12:17:47;5.28;;;1.63;;
39924;SDS011;25592;49.986;11.618;2023-09-30T12:20:33;5.80;;;1.70;;
39924;SDS011;25592;49.986;11.618;2023-09-30T12:23:19;2.78;;;1.38;;
39924;SDS011;25592;49.986;11.618;2023-09-30T12:26:04;3.42;;;1.50;;
39924;SDS011;25592;49.986;11.618;2023-09-30T12:29:00;4.47;;;1.90;;
39924;SDS011;25592;49.986;11.618;2023-09-30T12:31:45;4.25;;;1.67;;
39924;SDS011;25592;49.986;11.618;2023-09-30T12:34:38;4.00;;;1.80;;
39924;SDS011;25592;49.986;11.618;2023-09-30T12:37:23;3.58;;;1.40;;
39924;SDS011;25592;49.986;11.618;2023-09-30T12:40:09;4.15;;;1.70;;
39924;SDS011;25592;49.986;11.618;2023-09-30T12:42:56;3.67;;;1.73;;
39924;SDS011;25592;49.986;11.618;2023-09-30T12:45:43;3.58;;;1.60;;
39924;SDS011;25592;49.986;11.618;2023-09-30T12:48:28;4.07;;;1.70;;
39924;SDS011;25592;49.986;11.618;2023-09-30T12:51:14;4.15;;;1.67;;
39924;SDS011;25592;49.986;11.618;2023-09-30T12:54:00;4.45;;;1.70;;
39924;SDS011;25592;49.986;11.618;2023-09-30T12:56:46;3.65;;;1.42;;
39924;SDS011;25592;49.986;11.618;2023-09-30T12:59:33;4.93;;;1.75;;
39924;SDS011;25592;49.986;11.618;2023-09-30T13:02:19;2.97;;;1.55;;
39924;SDS011;25592;49.986;11.618;2023-09-30T13:05:04;3.47;;;1.58;;
39924;SDS011;25592;49.986;11.618;2023-09-30T13:07:51;3.53;;;1.40;;
39924;SDS011;25592;49.986;11.618;2023-09-30T13:10:40;5.53;;;2.17;;
39924;SDS011;25592;49.986;11.618;2023-09-30T13:13:25;4.60;;;1.77;;
39924;SDS011;25592;49.986;11.618;2023-09-30T13:16:11;6.63;;;2.15;;
39924;SDS011;25592;49.986;11.618;2023-09-30T13:18:57;4.43;;;1.63;;
39924;SDS011;25592;49.986;11.618;2023-09-30T13:21:43;4.38;;;1.60;;
39924;SDS011;25592;49.986;11.618;2023-09-30T13:24:28;4.80;;;2.00;;
39924;SDS011;25592;49.986;11.618;2023-09-30T13:27:14;3.70;;;1.60;;
39924;SDS011;25592;49.986;11.618;2023-09-30T13:30:02;7.82;;;1.88;;
39924;SDS011;25592;49.986;11.618;2023-09-30T13:32:48;4.72;;;1.65;;
39924;SDS011;25592;49.986;11.618;2023-09-30T13:35:33;3.05;;;1.42;;
39924;SDS011;25592;49.986;11.618;2023-09-30T13:38:21;3.35;;;1.40;;
39924;SDS011;25592;49.986;11.618;2023-09-30T13:41:06;4.10;;;1.48;;
39924;SDS011;25592;49.986;11.618;2023-09-30T13:43:52;5.32;;;1.88;;
39924;SDS011;25592;49.986;11.618;2023-09-30T13:46:37;4.35;;;1.50;;
39924;SDS011;25592;49.986;11.618;2023-09-30T13:49:22;3.80;;;1.48;;
39924;SDS011;25592;49.986;11.618;2023-09-30T13:52:08;4.03;;;1.50;;
39924;SDS011;25592;49.986;11.618;2023-09-30T13:54:53;4.07;;;1.85;;
39924;SDS011;25592;49.986;11.618;2023-09-30T13:57:40;4.15;;;1.58;;
39924;SDS011;25592;49.986;11.618;2023-09-30T14:00:26;7.82;;;1.83;;
39924;SDS011;25592;49.986;11.618;2023-09-30T14:03:11;5.65;;;1.75;;
39924;SDS011;25592;49.986;11.618;2023-09-30T14:05:57;4.55;;;1.40;;
39924;SDS011;25592;49.986;11.618;2023-09-30T14:08:43;4.28;;;1.27;;
39924;SDS011;25592;49.986;11.618;2023-09-30T14:11:29;5.18;;;1.65;;
39924;SDS011;25592;49.986;11.618;2023-09-30T14:14:15;4.78;;;1.50;;
39924;SDS011;25592;49.986;11.618;2023-09-30T14:17:00;3.40;;;1.63;;
39924;SDS011;25592;49.986;11.618;2023-09-30T14:19:52;4.78;;;1.50;;
39924;SDS011;25592;49.986;11.618;2023-09-30T14:22:38;4.80;;;1.77;;
39924;SDS011;25592;49.986;11.618;2023-09-30T14:25:24;3.35;;;1.40;;
39924;SDS011;25592;49.986;11.618;2023-09-30T14:28:09;5.47;;;1.40;;
39924;SDS011;25592;49.986;11.618;2023-09-30T14:30:55;4.07;;;1.50;;
39924;SDS011;25592;49.986;11.618;2023-09-30T14:33:41;4.57;;;1.90;;
39924;SDS011;25592;49.986;11.618;2023-09-30T14:36:26;3.95;;;1.70;;
39924;SDS011;25592;49.986;11.618;2023-09-30T14:39:12;2.92;;;1.20;;
39924;SDS011;25592;49.986;11.618;2023-09-30T14:41:59;2.90;;;1.40;;
39924;SDS011;25592;49.986;11.618;2023-09-30T14:44:44;4.45;;;1.48;;
39924;SDS011;25592;49.986;11.618;2023-09-30T14:47:30;4.35;;;1.88;;
39924;SDS011;25592;49.986;11.618;2023-09-30T14:50:15;7.10;;;1.67;;
39924;SDS011;25592;49.986;11.618;2023-09-30T14:53:01;4.28;;;1.70;;
39924;SDS011;25592;49.986;11.618;2023-09-30T14:55:47;3.38;;;1.83;;
39924;SDS011;25592;49.986;11.618;2023-09-30T14:58:32;4.05;;;1.90;;
39924;SDS011;25592;49.986;11.618;2023-09-30T15:01:18;4.15;;;1.80;;
39924;SDS011;25592;49.986;11.618;2023-09-30T15:04:05;5.20;;;1.80;;
39924;SDS011;25592;49.986;11.618;2023-09-30T15:06:54;5.35;;;1.60;;
39924;SDS011;25592;49.986;11.618;2023-09-30T15:09:40;3.72;;;1.60;;
39924;SDS011;25592;49.986;11.618;2023-09-30T15:12:27;4.35;;;1.58;;
39924;SDS011;25592;49.986;11.618;2023-09-30T15:15:13;4.72;;;1.90;;
39924;SDS011;25592;49.986;11.618;2023-09-30T15:17:58;5.25;;;1.70;;
39924;SDS011;25592;49.986;11.618;2023-09-30T15:20:45;3.60;;;1.90;;
39924;SDS011;25592;49.986;11.618;2023-09-30T15:23:32;6.63;;;1.73;;
39924;SDS011;25592;49.986;11.618;2023-09-30T15:26:17;7.90;;;1.63;;
39924;SDS011;25592;49.986;11.618;2023-09-30T15:29:03;4.38;;;1.60;;
39924;SDS011;25592;49.986;11.618;2023-09-30T15:31:48;3.80;;;1.65;;
39924;SDS011;25592;49.986;11.618;2023-09-30T15:34:37;3.22;;;1.20;;
39924;SDS011;25592;49.986;11.618;2023-09-30T15:37:24;4.40;;;1.73;;
39924;SDS011;25592;49.986;11.618;2023-09-30T15:40:10;2.70;;;1.48;;
39924;SDS011;25592;49.986;11.618;2023-09-30T15:42:57;4.32;;;1.58;;
39924;SDS011;25592;49.986;11.618;2023-09-30T15:45:42;3.53;;;1.42;;
39924;SDS011;25592;49.986;11.618;2023-09-30T15:48:28;5.13;;;1.80;;
39924;SDS011;25592;49.986;11.618;2023-09-30T15:51:14;3.60;;;1.30;;
39924;SDS011;25592;49.986;11.618;2023-09-30T15:54:00;3.97;;;1.83;;
39924;SDS011;25592;49.986;11.618;2023-09-30T15:56:45;4.72;;;1.60;;
39924;SDS011;25592;49.986;11.618;2023-09-30T15:59:40;3.67;;;1.55;;
39924;SDS011;25592;49.986;11.618;2023-09-30T16:02:25;3.35;;;1.45;;
39924;SDS011;25592;49.986;11.618;2023-09-30T16:05:12;6.45;;;1.52;;
39924;SDS011;25592;49.986;11.618;2023-09-30T16:07:58;3.47;;;1.50;;
39924;SDS011;25592;49.986;11.618;2023-09-30T16:10:44;3.92;;;1.60;;
39924;SDS011;25592;49.986;11.618;2023-09-30T16:13:29;7.03;;;2.17;;
39924;SDS011;25592;49.986;11.618;2023-09-30T16:16:15;10.38;;;1.67;;
39924;SDS011;25592;49.986;11.618;2023-09-30T16:19:00;5.15;;;1.70;;
39924;SDS011;25592;49.986;11.618;2023-09-30T16:21:45;3.25;;;1.30;;
39924;SDS011;25592;49.986;11.618;2023-09-30T16:24:31;4.72;;;1.75;;
39924;SDS011;25592;49.986;11.618;2023-09-30T16:27:16;5.28;;;1.63;;
39924;SDS011;25592;49.986;11.618;2023-09-30T16:30:02;4.85;;;1.33;;
39924;SDS011;25592;49.986;11.618;2023-09-30T16:32:48;4.57;;;1.55;;
39924;SDS011;25592;49.986;11.618;2023-09-30T16:35:33;4.40;;;1.55;;
39924;SDS011;25592;49.986;11.618;2023-09-30T16:38:19;4.90;;;1.50;;
39924;SDS011;25592;49.986;11.618;2023-09-30T16:41:06;3.17;;;1.30;;
39924;SDS011;25592;49.986;11.618;2023-09-30T16:43:52;3.38;;;1.35;;
39924;SDS011;25592;49.986;11.618;2023-09-30T16:46:37;5.28;;;1.63;;
39924;SDS011;25592;49.986;11.618;2023-09-30T16:49:23;3.65;;;1.70;;
39924;SDS011;25592;49.986;11.618;2023-09-30T16:52:08;2.97;;;1.30;;
39924;SDS011;25592;49.986;11.618;2023-09-30T16:54:54;5.00;;;1.40;;